Time;durP1;ratioP1;P1;durP2;ratioP2;P2;SDS_P1;SDS_P2;PMS_P1;PMS_P2;Temp;Humidity;BMP_temperature;BMP_pressure;BME280_temperature;BME280_humidity;BME280_pressure;Samples;Min_cycle;Max_cycle;Signal;HPM_P1;HPM_P2
2023/04/24 00:00:14;;;;;;;0.88;0.20;;;11.90;99.90;;;;;;4888151;29;20088;-69
2023/04/24 05:01:22;;;;;;;1.35;0.60;;;10.50;99.90;;;;;;5914255;23;20018;-71
2023/04/24 05:03:49;;;;;;;1.88;0.60;;;10.40;99.90;;;;;;4908197;29;20325;-70
2023/04/24 05:06:16;;;;;;;1.40;0.60;;;10.40;99.90;;;;;;4908595;29;20060;-70
2023/04/24 05:08:43;;;;;;;2.28;0.70;;;10.40;99.90;;;;;;4908634;29;20024;-70
2023/04/24 05:11:16;;;;;;;2.42;1.08;;;10.40;99.90;;;;;;4908685;29;20051;-69
2023/04/24 05:13:42;;;;;;;2.28;0.85;;;10.40;99.90;;;;;;4911645;29;20044;-69
2023/04/24 05:16:13;;;;;;;2.33;0.90;;;10.40;99.90;;;;;;4912194;29;20040;-70
2023/04/24 05:18:39;;;;;;;2.08;0.80;;;10.40;99.90;;;;;;4912532;29;20020;-69
2023/04/24 05:21:06;;;;;;;3.03;0.70;;;10.50;99.90;;;;;;4912032;29;20294;-70
2023/04/24 05:23:32;;;;;;;1.65;0.73;;;10.60;99.90;;;;;;4912472;29;20484;-69
2023/04/24 05:25:58;;;;;;;3.03;0.60;;;10.50;99.90;;;;;;4912681;29;20028;-69
2023/04/24 05:28:28;;;;;;;3.25;0.65;;;10.60;99.90;;;;;;4928476;29;20040;-67
2023/04/24 05:31:03;;;;;;;2.67;0.77;;;10.60;99.90;;;;;;4912691;29;20031;-68
2023/04/24 05:33:28;;;;;;;3.17;0.70;;;10.60;99.90;;;;;;4911789;29;20050;-69
2023/04/24 05:35:54;;;;;;;2.15;0.68;;;10.60;99.90;;;;;;4929177;29;20214;-68
2023/04/24 05:38:20;;;;;;;2.88;0.75;;;10.60;99.90;;;;;;4911690;29;20020;-69
2023/04/24 05:40:46;;;;;;;1.58;0.50;;;10.60;99.90;;;;;;4912221;29;20087;-69
2023/04/24 05:43:12;;;;;;;1.85;0.90;;;10.70;99.90;;;;;;4928780;29;20036;-69
2023/04/24 05:45:39;;;;;;;1.67;0.93;;;10.70;99.90;;;;;;4911920;29;20024;-69
2023/04/24 05:48:05;;;;;;;1.90;0.70;;;10.70;99.90;;;;;;4912101;29;20024;-69
2023/04/24 05:50:32;;;;;;;3.67;0.90;;;10.70;99.90;;;;;;4911635;29;20094;-69
2023/04/24 05:53:02;;;;;;;1.38;0.65;;;10.70;99.90;;;;;;4911908;29;20032;-69
2023/04/24 05:55:32;;;;;;;3.80;0.80;;;10.80;99.90;;;;;;4911615;29;20036;-69
2023/04/24 05:57:58;;;;;;;1.15;0.63;;;10.80;99.90;;;;;;4928869;29;20079;-69
2023/04/24 06:00:25;;;;;;;2.65;0.90;;;10.90;99.90;;;;;;4916571;29;20254;-69
2023/04/24 06:03:00;;;;;;;2.67;1.10;;;11.00;99.90;;;;;;4905083;29;20293;-70
2023/04/24 06:05:26;;;;;;;2.65;0.80;;;10.90;99.90;;;;;;4893529;29;20309;-69
2023/04/24 06:07:53;;;;;;;3.40;0.90;;;10.90;99.90;;;;;;4890256;29;20386;-68
2023/04/24 06:10:20;;;;;;;1.67;0.80;;;10.90;99.90;;;;;;4892207;29;20021;-69
2023/04/24 06:12:46;;;;;;;1.92;0.80;;;10.90;99.90;;;;;;4892708;29;20043;-68
2023/04/24 06:15:16;;;;;;;1.80;0.82;;;10.70;99.90;;;;;;4891892;29;20024;-68
2023/04/24 06:17:55;;;;;;;1.75;0.70;;;10.70;99.90;;;;;;4885642;29;20067;-68
2023/04/24 06:20:21;;;;;;;2.25;0.93;;;10.70;99.90;;;;;;4908654;29;20068;-68
2023/04/24 06:22:46;;;;;;;2.15;0.90;;;10.70;99.90;;;;;;4909043;29;20062;-69
2023/04/24 06:25:12;;;;;;;3.25;0.95;;;10.70;99.90;;;;;;4907194;29;20039;-69
2023/04/24 06:27:38;;;;;;;4.30;0.90;;;10.80;99.90;;;;;;4900967;29;20029;-68
2023/04/24 06:30:04;;;;;;;2.90;0.90;;;10.90;99.90;;;;;;4901559;29;20116;-69
2023/04/24 06:32:30;;;;;;;1.70;1.00;;;11.00;99.90;;;;;;4889412;29;20087;-69
2023/04/24 06:34:56;;;;;;;2.80;0.80;;;11.20;99.90;;;;;;4908819;29;20039;-69
2023/04/24 06:37:22;;;;;;;3.30;1.00;;;11.50;99.90;;;;;;4908768;29;20032;-69
2023/04/24 06:39:48;;;;;;;2.13;0.93;;;11.70;99.90;;;;;;4908544;29;20069;-68
2023/04/24 06:42:13;;;;;;;1.77;0.75;;;11.90;99.90;;;;;;4906825;29;20056;-69
2023/04/24 06:44:42;;;;;;;2.53;1.00;;;12.00;99.90;;;;;;4884098;29;20028;-67
2023/04/24 06:47:13;;;;;;;2.15;1.05;;;12.20;99.90;;;;;;4908880;29;20329;-68
2023/04/24 06:49:39;;;;;;;3.67;0.93;;;12.20;99.90;;;;;;4892218;29;20041;-67
2023/04/24 06:52:06;;;;;;;2.30;0.82;;;12.20;99.90;;;;;;4908629;29;20036;-68
2023/04/24 06:54:32;;;;;;;2.92;1.10;;;12.20;99.90;;;;;;4908215;29;20048;-68
2023/04/24 06:57:00;;;;;;;2.75;0.93;;;12.40;99.90;;;;;;4908776;29;20021;-68
2023/04/24 06:59:27;;;;;;;2.10;1.00;;;12.60;99.90;;;;;;4904114;29;20076;-67
2023/04/24 07:01:53;;;;;;;3.13;0.90;;;12.70;99.90;;;;;;4900560;29;20056;-68
2023/04/24 07:04:18;;;;;;;2.55;1.23;;;13.00;99.90;;;;;;4926782;29;20028;-67
2023/04/24 07:06:48;;;;;;;2.55;0.80;;;13.20;99.90;;;;;;4927969;29;20036;-68
2023/04/24 07:09:16;;;;;;;3.03;0.95;;;13.40;99.90;;;;;;4927061;29;20044;-68
2023/04/24 07:11:41;;;;;;;1.55;0.80;;;13.50;99.90;;;;;;4927290;29;20063;-68
2023/04/24 07:14:07;;;;;;;2.13;1.10;;;13.50;99.90;;;;;;4927400;29;20055;-68
2023/04/24 07:16:33;;;;;;;1.98;0.90;;;13.70;99.90;;;;;;4926549;29;20231;-69
2023/04/24 07:19:00;;;;;;;4.13;1.20;;;13.40;99.90;;;;;;4927072;29;20048;-69
2023/04/24 07:21:27;;;;;;;1.95;1.10;;;13.00;99.90;;;;;;4926612;29;20088;-69
2023/04/24 07:23:52;;;;;;;4.05;1.10;;;12.80;99.90;;;;;;4926920;29;20277;-69
2023/04/24 07:26:20;;;;;;;2.42;1.02;;;12.60;99.90;;;;;;4926271;29;20044;-68
2023/04/24 07:28:46;;;;;;;2.20;0.80;;;12.70;99.90;;;;;;4927205;29;20035;-69
2023/04/24 07:31:12;;;;;;;2.10;1.00;;;12.70;99.90;;;;;;4909655;29;20043;-68
2023/04/24 07:33:40;;;;;;;2.42;0.82;;;12.80;99.90;;;;;;4927135;29;20032;-69
2023/04/24 07:36:06;;;;;;;4.88;0.90;;;12.90;99.90;;;;;;4926763;29;20359;-69
2023/04/24 07:38:32;;;;;;;3.08;0.70;;;13.00;99.30;;;;;;4926079;29;20040;-69
2023/04/24 07:40:58;;;;;;;2.25;0.70;;;13.00;97.80;;;;;;4926897;29;20055;-68
2023/04/24 07:43:24;;;;;;;2.03;0.80;;;13.10;97.00;;;;;;4926407;29;20040;-68
2023/04/24 07:45:52;;;;;;;2.65;0.73;;;13.20;97.30;;;;;;4926985;29;20091;-69
2023/04/24 07:48:18;;;;;;;1.38;0.50;;;13.50;96.30;;;;;;4926664;29;20036;-68
2023/04/24 07:50:44;;;;;;;1.80;0.70;;;13.70;94.90;;;;;;4914174;29;20028;-69
2023/04/24 07:53:10;;;;;;;1.50;0.70;;;13.90;93.50;;;;;;4907648;29;20329;-70
2023/04/24 07:55:36;;;;;;;1.33;0.65;;;14.00;93.60;;;;;;4907283;29;20041;-69
2023/04/24 07:58:02;;;;;;;2.03;0.73;;;13.80;93.30;;;;;;4914029;29;20033;-69
2023/04/24 08:00:28;;;;;;;2.15;0.70;;;13.70;93.00;;;;;;4924653;29;20286;-69
2023/04/24 08:02:53;;;;;;;1.73;0.65;;;13.60;92.70;;;;;;4926074;29;20048;-69
2023/04/24 08:05:19;;;;;;;1.92;0.70;;;13.50;93.10;;;;;;4925832;29;20031;-69
2023/04/24 08:07:48;;;;;;;3.35;1.27;;;13.50;92.40;;;;;;4926292;29;20067;-69
2023/04/24 08:10:14;;;;;;;1.45;0.57;;;13.20;92.60;;;;;;4925876;29;20044;-71
2023/04/24 08:12:41;;;;;;;1.65;0.68;;;13.10;92.80;;;;;;4926174;29;20036;-70
2023/04/24 08:15:07;;;;;;;2.05;0.63;;;13.00;92.50;;;;;;4926227;29;20267;-70
2023/04/24 08:17:35;;;;;;;5.00;0.77;;;13.10;93.60;;;;;;4909047;29;20039;-70
2023/04/24 08:20:01;;;;;;;2.22;0.70;;;13.20;93.00;;;;;;4926155;29;20032;-70
2023/04/24 08:22:28;;;;;;;1.90;0.75;;;13.30;92.80;;;;;;4926030;29;20032;-68
2023/04/24 08:24:55;;;;;;;1.90;0.80;;;13.20;91.90;;;;;;4925748;29;20032;-69
2023/04/24 08:27:21;;;;;;;3.20;0.70;;;13.10;92.30;;;;;;4928376;29;20032;-69
2023/04/24 08:29:47;;;;;;;1.20;0.60;;;12.80;92.40;;;;;;4926469;29;20119;-69
2023/04/24 08:32:13;;;;;;;2.70;0.90;;;12.80;92.40;;;;;;4926306;29;20032;-70
2023/04/24 08:34:38;;;;;;;2.53;0.70;;;12.80;92.90;;;;;;4925864;29;20068;-68
2023/04/24 08:37:04;;;;;;;2.90;0.70;;;12.90;92.50;;;;;;4925963;29;20056;-69
2023/04/24 08:39:30;;;;;;;2.53;0.85;;;12.90;92.20;;;;;;4925765;29;20114;-69
2023/04/24 08:41:56;;;;;;;1.67;0.70;;;12.90;92.10;;;;;;4926038;29;20039;-68
2023/04/24 08:44:22;;;;;;;1.92;0.68;;;13.20;92.20;;;;;;4925937;29;20043;-72
2023/04/24 08:46:48;;;;;;;3.03;0.90;;;13.40;92.10;;;;;;4926262;29;20369;-68
2023/04/24 08:49:16;;;;;;;2.30;0.93;;;13.40;91.40;;;;;;4929350;29;20032;-68
2023/04/24 08:51:42;;;;;;;2.70;0.70;;;13.30;91.70;;;;;;4930225;29;20027;-69
2023/04/24 08:54:08;;;;;;;1.73;0.70;;;13.30;91.30;;;;;;4929902;29;20306;-68
2023/04/24 08:56:39;;;;;;;2.50;0.95;;;13.00;92.10;;;;;;4927316;29;20036;-69
2023/04/24 08:59:08;;;;;;;2.40;0.98;;;12.90;92.50;;;;;;4919832;29;20036;-68
2023/04/24 09:01:37;;;;;;;1.80;0.75;;;12.90;92.40;;;;;;4929060;29;20063;-68
2023/04/24 09:04:03;;;;;;;1.83;0.63;;;12.90;92.30;;;;;;4929684;29;20257;-70
2023/04/24 09:06:31;;;;;;;2.45;0.82;;;13.30;92.20;;;;;;4929188;29;20059;-71
2023/04/24 09:09:00;;;;;;;1.52;0.80;;;13.50;92.10;;;;;;4929509;29;20333;-70
2023/04/24 09:11:27;;;;;;;1.88;0.73;;;13.30;91.90;;;;;;4924711;29;20036;-70
2023/04/24 09:13:54;;;;;;;2.58;1.00;;;13.30;92.70;;;;;;4929329;29;20262;-68
2023/04/24 09:16:20;;;;;;;1.80;0.80;;;13.10;92.50;;;;;;4928897;29;20246;-69
2023/04/24 09:18:46;;;;;;;1.73;0.70;;;12.90;93.00;;;;;;4929563;29;20040;-69
2023/04/24 09:21:12;;;;;;;1.98;0.80;;;12.60;93.50;;;;;;4928986;29;20027;-70
2023/04/24 09:23:38;;;;;;;4.10;1.17;;;12.20;96.00;;;;;;4893693;29;20067;-68
2023/04/24 09:26:05;;;;;;;2.03;0.90;;;11.60;99.90;;;;;;4922715;29;20055;-68
2023/04/24 09:28:34;;;;;;;2.42;0.80;;;11.60;99.90;;;;;;4922802;29;20053;-69
2023/04/24 09:31:18;;;;;;;2.75;1.30;;;11.40;99.90;;;;;;4923205;29;20344;-69
2023/04/24 09:33:57;;;;;;;2.67;0.90;;;11.30;99.90;;;;;;4918118;29;20063;-69
2023/04/24 09:36:40;;;;;;;2.10;0.95;;;11.30;99.90;;;;;;4928335;29;20051;-69
2023/04/24 09:39:16;;;;;;;2.10;1.08;;;11.20;99.90;;;;;;4930208;29;20040;-67
2023/04/24 09:41:46;;;;;;;1.77;0.85;;;11.20;99.90;;;;;;4916349;29;20028;-69
2023/04/24 09:44:23;;;;;;;3.33;1.13;;;11.40;99.90;;;;;;4933875;29;20108;-68
2023/04/24 09:46:56;;;;;;;5.00;1.00;;;11.60;99.90;;;;;;4933256;29;20040;-68
2023/04/24 09:49:24;;;;;;;2.72;0.90;;;11.90;99.20;;;;;;4929502;29;20050;-68
2023/04/24 09:51:50;;;;;;;1.65;0.70;;;12.20;99.20;;;;;;4929113;29;20095;-69
2023/04/24 09:54:18;;;;;;;1.98;0.88;;;12.60;97.10;;;;;;4929262;29;20036;-72
2023/04/24 09:56:45;;;;;;;2.92;0.82;;;12.90;95.70;;;;;;4915942;29;20040;-70
2023/04/24 09:59:12;;;;;;;1.90;0.80;;;13.00;95.20;;;;;;4928440;29;20060;-70
2023/04/24 10:01:40;;;;;;;1.83;0.70;;;13.10;95.50;;;;;;4928163;29;20223;-70
2023/04/24 10:04:06;;;;;;;4.10;0.90;;;13.20;94.30;;;;;;4928875;29;20329;-69
2023/04/24 10:06:35;;;;;;;2.83;0.90;;;13.40;94.10;;;;;;4928129;29;20040;-69
2023/04/24 10:09:03;;;;;;;1.27;0.60;;;13.60;93.80;;;;;;4928445;29;20042;-70
2023/04/24 10:11:30;;;;;;;2.15;0.80;;;13.50;91.90;;;;;;4928290;29;20032;-70
2023/04/24 10:13:57;;;;;;;2.05;0.60;;;13.50;92.00;;;;;;4928229;29;20175;-69
2023/04/24 10:16:26;;;;;;;1.75;0.60;;;13.50;91.60;;;;;;4927786;29;20032;-70
2023/04/24 10:18:52;;;;;;;1.40;0.55;;;13.60;91.20;;;;;;4928452;29;20324;-70
2023/04/24 10:21:18;;;;;;;2.58;0.50;;;13.60;90.30;;;;;;4928174;29;20074;-70
2023/04/24 10:23:46;;;;;;;1.95;0.70;;;13.40;90.60;;;;;;4927888;29;20044;-72
2023/04/24 10:26:17;;;;;;;2.53;0.88;;;13.30;88.40;;;;;;4928197;29;20036;-70
2023/04/24 10:28:47;;;;;;;1.67;0.68;;;13.50;87.40;;;;;;4927885;29;20052;-70
2023/04/24 10:31:14;;;;;;;1.95;0.70;;;13.90;88.30;;;;;;4928307;29;20064;-70
2023/04/24 10:33:42;;;;;;;2.13;0.60;;;14.40;84.50;;;;;;4929833;29;20411;-70
2023/04/24 10:36:10;;;;;;;1.65;0.60;;;14.50;82.50;;;;;;4927614;29;20310;-69
2023/04/24 10:38:38;;;;;;;2.35;0.70;;;14.40;83.00;;;;;;4910819;29;20044;-70
2023/04/24 10:41:16;;;;;;;1.15;0.60;;;14.40;82.60;;;;;;4927970;29;20040;-70
2023/04/24 10:43:43;;;;;;;1.77;0.60;;;14.10;83.30;;;;;;4910766;29;20044;-69
2023/04/24 10:46:10;;;;;;;1.48;0.63;;;13.90;84.40;;;;;;4927660;29;20313;-69
2023/04/24 10:48:41;;;;;;;2.05;0.70;;;13.80;84.20;;;;;;4927327;29;20052;-70
2023/04/24 10:51:12;;;;;;;1.92;0.60;;;14.00;85.00;;;;;;4914646;29;20047;-70
2023/04/24 10:53:38;;;;;;;1.65;0.68;;;14.10;84.50;;;;;;4910205;29;20087;-69
2023/04/24 10:56:04;;;;;;;1.65;0.50;;;14.00;84.50;;;;;;4927433;29;20040;-70
2023/04/24 10:58:38;;;;;;;3.13;1.40;;;13.90;84.40;;;;;;4900570;29;20306;-69
2023/04/24 11:01:04;;;;;;;2.97;0.63;;;13.90;84.50;;;;;;4927358;29;20039;-71
2023/04/24 11:03:32;;;;;;;2.40;0.60;;;14.00;84.20;;;;;;4927126;29;20060;-70
2023/04/24 11:06:02;;;;;;;2.30;0.70;;;14.20;85.00;;;;;;4927154;29;20066;-70
2023/04/24 11:08:31;;;;;;;1.17;0.47;;;14.40;84.80;;;;;;4926511;29;20044;-70
2023/04/24 11:10:59;;;;;;;;;;;14.50;83.70;;;;;;4926719;29;20055;-70
2023/04/24 11:13:27;;;;;;;1.70;0.60;;;14.40;83.90;;;;;;4909745;29;19954;-73
2023/04/24 11:16:28;;;;;;;2.42;0.77;;;14.10;84.70;;;;;;4916017;29;20032;-71
2023/04/24 11:19:16;;;;;;;2.83;0.95;;;13.80;85.70;;;;;;4927278;29;20074;-69
2023/04/24 11:21:48;;;;;;;2.00;0.60;;;14.00;86.40;;;;;;4914649;29;20337;-71
2023/04/24 11:24:29;;;;;;;1.73;0.93;;;14.20;86.10;;;;;;4926854;29;20028;-70
2023/04/24 11:27:15;;;;;;;2.28;0.80;;;14.60;83.60;;;;;;4927015;29;20028;-70
2023/04/24 11:30:03;;;;;;;1.10;0.60;;;14.90;83.80;;;;;;4926084;29;20318;-71
2023/04/24 11:32:36;;;;;;;1.40;0.50;;;14.90;82.90;;;;;;4926571;29;20255;-70
2023/04/24 11:35:20;;;;;;;1.55;0.70;;;15.00;82.30;;;;;;4926563;29;20044;-70
2023/04/24 11:37:52;;;;;;;1.90;0.60;;;15.30;81.80;;;;;;4909543;29;20035;-69
2023/04/24 11:40:20;;;;;;;1.00;0.45;;;15.20;80.50;;;;;;4927052;29;20040;-69
2023/04/24 11:42:50;;;;;;;1.38;0.75;;;15.30;80.80;;;;;;4893897;29;20068;-70
2023/04/24 11:45:24;;;;;;;2.65;0.60;;;15.20;80.00;;;;;;4926495;29;20254;-70
2023/04/24 11:47:51;;;;;;;1.42;0.70;;;15.00;80.80;;;;;;4926550;29;20043;-69
2023/04/24 11:50:19;;;;;;;3.08;0.70;;;14.80;81.90;;;;;;4926755;29;20198;-69
2023/04/24 11:52:46;;;;;;;1.40;0.60;;;14.50;82.80;;;;;;4926172;29;20497;-70
2023/04/24 11:55:15;;;;;;;2.15;0.50;;;14.10;84.20;;;;;;4926597;29;20058;-70
2023/04/24 11:57:53;;;;;;;2.67;0.85;;;13.80;87.90;;;;;;4925653;29;20120;-69
2023/04/24 12:00:23;;;;;;;2.08;1.00;;;13.20;90.80;;;;;;4926770;29;20032;-70
2023/04/24 12:02:50;;;;;;;2.35;0.70;;;13.10;91.30;;;;;;4925420;29;20123;-70
2023/04/24 12:05:26;;;;;;;3.20;0.63;;;13.40;90.40;;;;;;4927039;29;20042;-68
2023/04/24 12:07:53;;;;;;;1.67;0.60;;;14.10;88.10;;;;;;4926702;29;20071;-69
2023/04/24 12:10:26;;;;;;;2.65;0.80;;;14.40;85.90;;;;;;4926175;29;20059;-69
2023/04/24 12:12:53;;;;;;;1.88;0.68;;;14.90;83.30;;;;;;4926438;29;20296;-70
2023/04/24 12:15:20;;;;;;;1.58;0.70;;;15.50;82.40;;;;;;4927023;29;20083;-69
2023/04/24 12:17:46;;;;;;;2.58;0.70;;;15.20;82.20;;;;;;4926175;29;20330;-69
2023/04/24 12:20:13;;;;;;;1.50;0.47;;;15.10;82.90;;;;;;4926106;29;20206;-68
2023/04/24 12:22:57;;;;;;;3.33;1.63;;;14.80;83.10;;;;;;4928294;29;20095;-69
2023/04/24 12:25:25;;;;;;;1.65;0.60;;;14.30;84.40;;;;;;4930165;29;20377;-68
2023/04/24 12:28:12;;;;;;;1.23;0.60;;;14.10;85.20;;;;;;4930096;29;20080;-70
2023/04/24 12:30:44;;;;;;;1.55;0.70;;;13.80;85.00;;;;;;4916253;29;20040;-69
2023/04/24 12:33:10;;;;;;;2.28;0.70;;;13.70;85.00;;;;;;4930209;29;20043;-69
2023/04/24 12:35:36;;;;;;;2.15;0.70;;;13.70;85.00;;;;;;4913077;29;20362;-70
2023/04/24 12:38:15;;;;;;;1.83;0.70;;;13.60;84.70;;;;;;4930348;29;20099;-68
2023/04/24 12:40:42;;;;;;;2.25;0.80;;;13.50;85.70;;;;;;4929314;29;20036;-68
2023/04/24 12:43:19;;;;;;;1.83;0.70;;;13.60;85.10;;;;;;4929693;29;20317;-69
2023/04/24 12:45:45;;;;;;;4.07;0.95;;;13.80;84.30;;;;;;4929490;29;20028;-69
2023/04/24 12:48:12;;;;;;;1.90;0.80;;;14.10;83.80;;;;;;4913136;29;20032;-69
2023/04/24 12:50:38;;;;;;;2.22;0.82;;;14.40;82.90;;;;;;4912594;29;20071;-69
2023/04/24 12:53:04;;;;;;;2.30;0.80;;;14.10;83.80;;;;;;4929817;29;20032;-69
2023/04/24 12:55:30;;;;;;;1.75;0.82;;;14.10;83.30;;;;;;4912281;29;20362;-69
2023/04/24 12:57:56;;;;;;;1.77;0.70;;;14.00;83.90;;;;;;4929528;29;20039;-69
2023/04/24 13:00:21;;;;;;;2.20;0.82;;;14.00;83.90;;;;;;4929270;29;20067;-68
2023/04/24 13:02:47;;;;;;;2.05;0.77;;;13.70;85.20;;;;;;4928809;29;20103;-67
2023/04/24 13:05:13;;;;;;;3.70;0.80;;;13.80;84.80;;;;;;4929629;29;20243;-68
2023/04/24 13:07:39;;;;;;;2.15;0.60;;;13.70;85.60;;;;;;4928913;29;20047;-69
2023/04/24 13:10:06;;;;;;;3.03;0.70;;;13.60;86.40;;;;;;4929601;29;20031;-69
2023/04/24 13:12:32;;;;;;;3.25;0.85;;;13.60;89.60;;;;;;4929121;29;20337;-69
2023/04/24 13:14:58;;;;;;;2.05;0.88;;;13.50;93.50;;;;;;4928995;29;20390;-68
2023/04/24 13:17:24;;;;;;;1.42;0.70;;;13.40;95.10;;;;;;4929223;29;20036;-68
2023/04/24 13:19:51;;;;;;;1.88;0.63;;;13.80;94.40;;;;;;4928751;29;20072;-68
2023/04/24 13:22:20;;;;;;;1.55;0.60;;;14.60;94.60;;;;;;4929384;29;20028;-68
2023/04/24 13:24:48;;;;;;;3.03;0.73;;;15.30;91.60;;;;;;4928677;29;20242;-68
2023/04/24 13:27:15;;;;;;;1.10;0.70;;;15.20;90.10;;;;;;4912544;29;20048;-67
2023/04/24 13:29:40;;;;;;;2.55;0.65;;;16.10;90.30;;;;;;4928144;29;20032;-70
2023/04/24 13:32:07;;;;;;;1.55;0.47;;;15.80;88.30;;;;;;4928799;29;20021;-68
2023/04/24 13:34:34;;;;;;;1.65;0.60;;;16.30;86.80;;;;;;4928110;29;20053;-70
2023/04/24 13:37:02;;;;;;;1.63;0.70;;;16.20;86.50;;;;;;4929096;29;20044;-69
2023/04/24 13:39:29;;;;;;;1.58;0.50;;;16.20;86.30;;;;;;4902638;29;20056;-69
2023/04/24 13:41:55;;;;;;;1.25;0.60;;;15.80;87.60;;;;;;4911265;29;20035;-70
2023/04/24 13:44:22;;;;;;;1.55;0.70;;;15.40;87.50;;;;;;4928945;29;20036;-69
2023/04/24 13:46:49;;;;;;;1.80;0.70;;;14.70;88.10;;;;;;4928139;29;20032;-69
2023/04/24 13:49:16;;;;;;;2.37;0.60;;;14.40;90.10;;;;;;4928607;29;20035;-68
2023/04/24 13:51:42;;;;;;;3.13;0.80;;;14.40;90.40;;;;;;4911628;29;20031;-68
2023/04/24 13:54:08;;;;;;;2.10;0.80;;;14.10;90.20;;;;;;4896222;29;20092;-68
2023/04/24 13:56:34;;;;;;;2.65;0.90;;;13.80;93.90;;;;;;4928288;29;20037;-69
2023/04/24 13:59:00;;;;;;;2.97;1.15;;;11.90;99.90;;;;;;4928331;29;20053;-69
2023/04/24 14:01:26;;;;;;;3.03;1.10;;;10.60;99.90;;;;;;4928472;29;20043;-71
2023/04/24 14:03:55;;;;;;;2.85;1.13;;;10.00;99.90;;;;;;4928353;29;20363;-69
2023/04/24 14:06:22;;;;;;;2.22;1.40;;;9.90;99.90;;;;;;4928313;29;20048;-70
2023/04/24 14:08:49;;;;;;;2.25;1.20;;;10.40;99.90;;;;;;4917831;29;20036;-69
2023/04/24 14:11:15;;;;;;;1.98;1.05;;;11.90;99.90;;;;;;4928439;29;20044;-71
2023/04/24 14:13:41;;;;;;;1.42;0.80;;;14.20;99.90;;;;;;4928016;29;20099;-68
2023/04/24 14:16:08;;;;;;;1.50;0.68;;;16.40;99.90;;;;;;4928341;29;20039;-69
2023/04/24 14:18:33;;;;;;;1.45;0.70;;;18.20;99.90;;;;;;4928049;29;20103;-71
2023/04/24 14:21:00;;;;;;;1.42;0.60;;;18.80;91.70;;;;;;4927911;29;20052;-69
2023/04/24 14:23:26;;;;;;;2.10;0.70;;;18.20;91.50;;;;;;4928032;29;20031;-69
2023/04/24 14:25:53;;;;;;;1.58;0.55;;;17.70;92.00;;;;;;4927351;29;20222;-69
2023/04/24 14:28:20;;;;;;;1.65;0.63;;;17.90;91.20;;;;;;4928370;29;20032;-69
2023/04/24 14:30:46;;;;;;;1.77;0.70;;;18.00;93.10;;;;;;4927477;29;20091;-69
2023/04/24 14:33:13;;;;;;;1.50;0.50;;;17.90;92.20;;;;;;4928325;29;20047;-69
2023/04/24 14:35:39;;;;;;;2.30;0.60;;;18.50;90.00;;;;;;4927397;29;20437;-69
2023/04/24 14:38:05;;;;;;;2.22;0.60;;;20.10;86.40;;;;;;4929032;29;20225;-71
2023/04/24 14:40:32;;;;;;;1.70;0.50;;;21.20;80.80;;;;;;4929055;29;20043;-69
2023/04/24 14:42:58;;;;;;;2.47;0.60;;;20.90;75.10;;;;;;4930805;29;20100;-69
2023/04/24 14:45:27;;;;;;;1.25;0.38;;;20.80;80.10;;;;;;4931223;29;20056;-69
2023/04/24 14:47:53;;;;;;;1.10;0.40;;;20.50;75.60;;;;;;4929768;29;20043;-69
2023/04/24 14:50:19;;;;;;;1.98;0.57;;;19.10;76.40;;;;;;4926675;29;20087;-72
2023/04/24 14:52:46;;;;;;;3.25;0.70;;;18.00;80.20;;;;;;4926808;29;20048;-68
2023/04/24 14:55:12;;;;;;;2.72;0.80;;;17.30;81.90;;;;;;4910897;29;20040;-70
2023/04/24 14:57:38;;;;;;;3.03;0.80;;;16.80;82.80;;;;;;4927338;29;20267;-70
2023/04/24 15:00:09;;;;;;;1.83;0.75;;;16.70;87.50;;;;;;4927646;29;20060;-71
2023/04/24 15:02:39;;;;;;;2.10;0.70;;;17.80;83.00;;;;;;4927655;29;20052;-72
2023/04/24 15:05:06;;;;;;;2.50;0.70;;;18.90;79.90;;;;;;4927294;29;20104;-68
2023/04/24 15:07:32;;;;;;;2.83;0.70;;;20.70;74.50;;;;;;4932092;29;20063;-70
2023/04/24 15:09:58;;;;;;;1.55;0.85;;;21.00;72.90;;;;;;4926876;29;20032;-70
2023/04/24 15:12:24;;;;;;;1.88;0.60;;;21.60;71.60;;;;;;4927097;29;20036;-70
2023/04/24 15:14:50;;;;;;;2.38;0.93;;;20.90;70.80;;;;;;4926767;29;20043;-70
2023/04/24 15:17:16;;;;;;;2.45;0.90;;;19.10;73.10;;;;;;4927221;29;20059;-71
2023/04/24 15:19:42;;;;;;;2.08;0.80;;;17.70;76.60;;;;;;4926965;29;20035;-68
2023/04/24 15:22:08;;;;;;;2.50;0.88;;;16.70;79.70;;;;;;4927274;29;20032;-71
2023/04/24 15:24:33;;;;;;;2.20;0.95;;;15.70;81.10;;;;;;4927238;29;20040;-70
2023/04/24 15:27:01;;;;;;;4.55;1.10;;;15.20;84.50;;;;;;4926241;29;20055;-70
2023/04/24 15:29:27;;;;;;;3.03;0.97;;;14.70;84.50;;;;;;4927209;29;20035;-69
2023/04/24 15:31:53;;;;;;;2.90;1.17;;;14.40;87.10;;;;;;4926663;29;20051;-71
2023/04/24 15:34:22;;;;;;;1.65;0.90;;;14.00;86.80;;;;;;4926592;29;20027;-72
2023/04/24 15:36:48;;;;;;;3.00;1.05;;;14.10;90.10;;;;;;4926563;29;20024;-72
2023/04/24 15:39:14;;;;;;;1.92;1.08;;;13.90;90.20;;;;;;4928486;29;20039;-70
2023/04/24 15:41:39;;;;;;;3.65;1.25;;;13.80;91.30;;;;;;4927468;29;20318;-71
2023/04/24 15:44:05;;;;;;;5.95;1.85;;;13.30;97.30;;;;;;4927205;29;20365;-70
2023/04/24 15:46:34;;;;;;;3.20;1.38;;;12.50;99.90;;;;;;4909860;29;20043;-70
2023/04/24 15:49:00;;;;;;;2.45;1.52;;;12.70;99.90;;;;;;4919000;29;20033;-70
2023/04/24 15:51:26;;;;;;;3.60;1.30;;;13.60;99.90;;;;;;4920839;29;20271;-70
2023/04/24 15:53:52;;;;;;;2.25;1.30;;;13.70;99.30;;;;;;4925986;29;20035;-71
2023/04/24 15:56:18;;;;;;;2.22;1.00;;;13.70;97.00;;;;;;4926371;29;20334;-69
2023/04/24 15:58:44;;;;;;;2.13;0.88;;;14.60;97.30;;;;;;4925809;29;20040;-69
2023/04/24 16:01:11;;;;;;;1.80;1.02;;;14.90;94.40;;;;;;4926113;29;20038;-73
2023/04/24 16:03:36;;;;;;;2.55;1.10;;;15.50;95.20;;;;;;4926173;29;20233;-69
2023/04/24 16:06:02;;;;;;;2.65;0.80;;;16.00;92.70;;;;;;4926014;29;20095;-70
2023/04/24 16:08:28;;;;;;;3.35;1.30;;;18.50;90.90;;;;;;4909808;29;20103;-71
2023/04/24 16:10:56;;;;;;;1.85;0.82;;;20.40;87.40;;;;;;4925695;29;20036;-71
2023/04/24 16:13:22;;;;;;;1.88;0.90;;;21.10;79.00;;;;;;4926413;29;20422;-70
2023/04/24 16:15:50;;;;;;;1.70;0.88;;;21.40;76.60;;;;;;4925808;29;20040;-71
2023/04/24 16:18:16;;;;;;;1.30;0.60;;;21.20;76.70;;;;;;4926265;29;20306;-70
2023/04/24 16:20:42;;;;;;;1.50;0.70;;;22.50;77.20;;;;;;4926042;29;20051;-70
2023/04/24 16:23:08;;;;;;;1.60;0.70;;;24.00;71.70;;;;;;4926251;29;20137;-70
2023/04/24 16:25:33;;;;;;;3.15;0.88;;;24.50;68.60;;;;;;4926514;29;20075;-69
2023/04/24 16:27:59;;;;;;;1.90;0.70;;;24.30;67.80;;;;;;4926036;29;20026;-70
2023/04/24 16:30:25;;;;;;;3.30;0.90;;;25.10;67.10;;;;;;4926258;29;20318;-69
2023/04/24 16:32:51;;;;;;;3.75;1.05;;;24.30;67.70;;;;;;4925912;29;20044;-69
2023/04/24 16:35:20;;;;;;;2.53;0.90;;;23.00;67.50;;;;;;4926472;29;20100;-69
2023/04/24 16:37:45;;;;;;;2.20;0.90;;;21.20;69.80;;;;;;4925931;29;20045;-70
2023/04/24 16:40:11;;;;;;;3.35;0.98;;;19.90;73.80;;;;;;4926060;29;20016;-70
2023/04/24 16:42:37;;;;;;;2.85;0.80;;;18.70;77.60;;;;;;4914272;29;20033;-70
2023/04/24 16:45:12;;;;;;;3.67;0.95;;;17.90;80.20;;;;;;4925069;29;20020;-70
2023/04/24 16:47:38;;;;;;;3.08;1.17;;;17.30;80.90;;;;;;4926105;29;20025;-68
2023/04/24 16:50:04;;;;;;;1.98;0.82;;;16.70;82.30;;;;;;4925560;29;20036;-69
2023/04/24 16:52:29;;;;;;;4.53;1.08;;;16.40;85.20;;;;;;4925909;29;20035;-70
2023/04/24 16:54:55;;;;;;;2.88;1.00;;;16.10;83.70;;;;;;4925492;29;20024;-77
2023/04/24 16:57:24;;;;;;;2.42;1.20;;;15.90;85.30;;;;;;4908980;29;20027;-70
2023/04/24 16:59:53;;;;;;;3.15;1.27;;;15.80;84.70;;;;;;4925248;29;20103;-69
2023/04/24 17:02:18;;;;;;;2.60;1.10;;;15.70;86.50;;;;;;4925791;29;20067;-71
2023/04/24 17:04:44;;;;;;;3.70;1.20;;;15.40;85.90;;;;;;4925830;29;20187;-70
2023/04/24 17:07:10;;;;;;;3.28;1.10;;;15.80;84.10;;;;;;4926172;29;20063;-70
2023/04/24 17:09:38;;;;;;;3.25;1.17;;;16.00;85.40;;;;;;4928505;29;20095;-72
2023/04/24 17:12:04;;;;;;;3.15;1.13;;;16.10;84.90;;;;;;4929344;29;20060;-70
2023/04/24 17:14:30;;;;;;;2.72;1.40;;;16.10;81.50;;;;;;4912890;29;20024;-70
2023/04/24 17:16:56;;;;;;;1.63;0.70;;;15.70;82.60;;;;;;4928597;29;20036;-70
2023/04/24 17:19:22;;;;;;;2.15;1.00;;;15.60;84.90;;;;;;4897021;29;20206;-71
2023/04/24 17:21:48;;;;;;;3.40;1.00;;;15.40;83.00;;;;;;4929092;29;20084;-69
2023/04/24 17:24:13;;;;;;;2.80;0.98;;;15.10;83.50;;;;;;4912227;29;20040;-69
2023/04/24 17:26:39;;;;;;;2.70;0.80;;;14.80;83.50;;;;;;4929609;29;20125;-71
2023/04/24 17:29:05;;;;;;;2.20;0.70;;;14.70;84.30;;;;;;4928454;29;20235;-70
2023/04/24 17:31:31;;;;;;;2.00;0.90;;;14.80;82.60;;;;;;4929303;29;20039;-70
2023/04/24 17:33:58;;;;;;;3.00;1.00;;;14.60;82.50;;;;;;4928704;29;20048;-70
2023/04/24 17:36:23;;;;;;;1.50;0.70;;;14.40;83.10;;;;;;4928927;29;20390;-70
2023/04/24 17:38:49;;;;;;;2.30;0.77;;;14.20;83.40;;;;;;4928484;29;20040;-71
2023/04/24 17:41:15;;;;;;;1.60;0.60;;;14.00;83.70;;;;;;4928961;29;20023;-71
2023/04/24 17:43:41;;;;;;;2.30;0.88;;;13.70;82.60;;;;;;4929160;29;20036;-71
2023/04/24 17:46:07;;;;;;;1.80;0.80;;;13.50;84.10;;;;;;4928177;29;20040;-69
2023/04/24 17:48:34;;;;;;;2.80;1.05;;;13.30;84.20;;;;;;4916999;29;20050;-69